createdAt,value
2022-10-23T00:01:27.439Z,16.18
2022-10-23T00:03:57.110Z,16.32
2022-10-23T00:06:25.342Z,16.22
2022-10-23T00:08:52.405Z,16.09
2022-10-23T00:11:28.157Z,16.27
2022-10-23T00:13:57.656Z,16.21
2022-10-23T00:16:24.509Z,16.22
2022-10-23T00:18:51.376Z,15.98
2022-10-23T00:21:18.812Z,15.94
2022-10-23T00:23:46.741Z,15.94
2022-10-23T00:26:17.368Z,15.83
2022-10-23T00:28:45.752Z,15.78
2022-10-23T00:31:13.349Z,15.96
2022-10-23T00:33:41.212Z,16.01
2022-10-23T00:36:10.161Z,15.85
2022-10-23T00:38:37.660Z,16.10
2022-10-23T00:41:06.398Z,16.30
2022-10-23T00:43:34.257Z,16.31
2022-10-23T00:46:02.118Z,16.13
2022-10-23T00:48:29.639Z,16.10
2022-10-23T00:50:58.030Z,16.11
2022-10-23T00:53:25.372Z,15.95
2022-10-23T00:55:54.957Z,15.98
2022-10-23T00:58:22.378Z,15.93
2022-10-23T01:00:54.632Z,15.73
2022-10-23T01:03:26.237Z,15.50
2022-10-23T01:05:56.257Z,15.17
2022-10-23T01:08:35.216Z,15.31
2022-10-23T01:11:08.881Z,15.35
2022-10-23T01:13:39.761Z,15.25
2022-10-23T01:16:20.537Z,15.05
2022-10-23T01:19:16.731Z,14.92
2022-10-23T01:21:55.420Z,14.92
2022-10-23T01:24:41.185Z,14.50
2022-10-23T01:27:18.431Z,14.27
2022-10-23T01:29:59.209Z,14.33
2022-10-23T01:32:48.754Z,14.28
2022-10-23T01:35:29.255Z,14.22
2022-10-23T01:38:29.105Z,14.57
2022-10-23T01:41:10.081Z,14.64
2022-10-23T01:43:49.872Z,14.74
2022-10-23T01:46:18.359Z,14.68
2022-10-23T01:48:52.775Z,14.54
2022-10-23T01:51:22.187Z,14.37
2022-10-23T01:53:55.005Z,14.11
2022-10-23T01:56:33.267Z,13.58
2022-10-23T01:59:04.970Z,13.27
2022-10-23T02:01:41.906Z,13.20
2022-10-23T02:04:12.327Z,13.19
2022-10-23T02:06:39.489Z,13.25
2022-10-23T02:09:07.288Z,13.37
2022-10-23T02:11:42.739Z,13.69
2022-10-23T02:14:09.538Z,13.75
2022-10-23T02:16:47.273Z,13.55
2022-10-23T02:19:35.882Z,13.62
2022-10-23T02:22:16.723Z,13.55
2022-10-23T02:24:46.887Z,13.69
2022-10-23T02:27:17.675Z,13.72
2022-10-23T02:29:51.847Z,13.88
2022-10-23T02:32:24.555Z,14.07
2022-10-23T02:34:51.582Z,14.27
2022-10-23T02:37:18.749Z,14.50
2022-10-23T02:39:45.926Z,14.45
2022-10-23T02:42:26.020Z,14.64
2022-10-23T02:45:21.995Z,14.73
2022-10-23T02:48:01.933Z,14.81
2022-10-23T02:50:50.113Z,14.76
2022-10-23T02:53:22.804Z,14.79
2022-10-23T02:56:15.327Z,15.04
2022-10-23T02:59:10.026Z,15.25
2022-10-23T03:02:03.124Z,14.93
2022-10-23T03:04:33.015Z,14.83
2022-10-23T03:07:00.395Z,15.13
2022-10-23T03:09:28.383Z,15.19
2022-10-23T03:11:56.330Z,15.05
2022-10-23T03:14:23.837Z,15.00
2022-10-23T03:16:50.861Z,14.91
2022-10-23T03:19:17.784Z,14.68
2022-10-23T03:21:44.691Z,14.25
2022-10-23T03:24:11.693Z,14.17
2022-10-23T03:26:42.474Z,14.07
2022-10-23T03:29:10.151Z,13.61
2022-10-23T03:31:42.743Z,13.88
2022-10-23T03:34:11.482Z,13.83
2022-10-23T03:36:40.827Z,13.67
2022-10-23T03:39:09.151Z,13.21
2022-10-23T03:41:36.009Z,13.32
2022-10-23T03:46:34.850Z,12.66
2022-10-23T03:49:01.771Z,13.14
2022-10-23T03:51:28.756Z,13.75
2022-10-23T03:53:57.745Z,13.94
2022-10-23T03:56:24.639Z,14.07
2022-10-23T03:58:51.577Z,13.84
2022-10-23T04:01:18.705Z,13.98
2022-10-23T04:03:46.386Z,14.18
2022-10-23T04:06:15.807Z,14.15
2022-10-23T04:08:44.192Z,14.19
2022-10-23T04:11:16.055Z,13.89
2022-10-23T04:13:45.808Z,14.27
2022-10-23T04:16:12.938Z,14.23
2022-10-23T04:18:43.013Z,14.07
2022-10-23T04:21:11.295Z,13.99
2022-10-23T04:23:39.080Z,13.88
2022-10-23T04:26:11.715Z,13.52
2022-10-23T04:28:38.787Z,13.60
2022-10-23T04:31:05.901Z,13.79
2022-10-23T04:33:33.650Z,14.23
2022-10-23T04:36:00.604Z,14.36
2022-10-23T04:38:27.432Z,14.53
2022-10-23T04:40:54.400Z,14.49
2022-10-23T04:43:22.557Z,14.41
2022-10-23T04:45:50.286Z,14.14
2022-10-23T04:48:18.104Z,13.92
2022-10-23T04:51:06.539Z,13.89
2022-10-23T04:53:51.865Z,13.84
2022-10-23T04:56:41.813Z,14.16
2022-10-23T04:59:14.343Z,13.88
2022-10-23T05:01:42.299Z,14.15
2022-10-23T05:04:09.866Z,14.24
2022-10-23T05:06:59.325Z,14.34
2022-10-23T05:09:42.882Z,14.32
2022-10-23T05:12:37.153Z,14.38
2022-10-23T05:15:04.531Z,14.23
2022-10-23T05:17:44.093Z,14.35
2022-10-23T05:20:18.434Z,14.48
2022-10-23T05:22:49.113Z,14.59
2022-10-23T05:25:18.227Z,14.66
2022-10-23T05:27:52.614Z,14.71
2022-10-23T05:30:19.548Z,14.73
2022-10-23T05:32:46.772Z,14.80
2022-10-23T05:35:22.164Z,15.11
2022-10-23T05:37:53.628Z,15.66
2022-10-23T05:40:24.011Z,16.46
2022-10-23T05:42:56.743Z,17.05
2022-10-23T05:45:35.418Z,17.57
2022-10-23T05:48:34.376Z,17.98
2022-10-23T05:51:20.265Z,18.13
2022-10-23T05:53:54.829Z,18.59
2022-10-23T05:56:47.807Z,18.52
2022-10-23T05:59:23.498Z,18.65
2022-10-23T06:02:11.199Z,18.67
2022-10-23T06:04:53.203Z,18.78
2022-10-23T06:07:25.214Z,18.83
2022-10-23T06:09:54.447Z,19.05
2022-10-23T06:12:22.470Z,18.94
2022-10-23T06:14:51.953Z,19.24
2022-10-23T06:17:21.230Z,19.45
2022-10-23T06:19:48.526Z,19.06
2022-10-23T06:24:55.758Z,18.56
2022-10-23T06:27:26.565Z,18.58
2022-10-23T06:29:55.063Z,18.45
2022-10-23T06:32:22.539Z,18.26
2022-10-23T06:35:04.711Z,17.99
2022-10-23T06:37:34.380Z,18.25
2022-10-23T06:40:09.183Z,18.83
2022-10-23T06:42:56.233Z,21.03
2022-10-23T06:45:49.668Z,22.80
2022-10-23T06:48:36.776Z,23.57
2022-10-23T06:51:11.478Z,23.14
2022-10-23T06:53:43.702Z,22.76
2022-10-23T06:56:35.254Z,23.57
2022-10-23T06:59:07.776Z,23.78
2022-10-23T07:01:36.111Z,23.55
2022-10-23T07:04:03.142Z,23.33
2022-10-23T07:06:30.623Z,23.59
2022-10-23T07:08:59.606Z,23.49
2022-10-23T07:11:55.570Z,22.70
2022-10-23T07:14:32.337Z,22.00
2022-10-23T07:17:01.690Z,22.15
2022-10-23T07:19:29.335Z,21.64
2022-10-23T07:21:57.986Z,22.69
2022-10-23T07:24:44.547Z,22.58
2022-10-23T07:27:38.576Z,22.93
2022-10-23T07:30:08.510Z,23.78
2022-10-23T07:32:44.460Z,24.45
2022-10-23T07:35:39.819Z,23.82
2022-10-23T07:38:13.869Z,24.27
2022-10-23T07:40:47.275Z,24.87
2022-10-23T07:43:18.610Z,25.18
2022-10-23T07:45:50.038Z,25.33
2022-10-23T07:48:32.462Z,25.45
2022-10-23T07:51:08.462Z,24.75
2022-10-23T07:53:40.242Z,24.83
2022-10-23T07:56:30.125Z,24.34
2022-10-23T07:59:15.035Z,23.40
2022-10-23T08:01:50.563Z,23.59
2022-10-23T08:04:21.103Z,24.22
2022-10-23T08:06:56.692Z,24.85
2022-10-23T08:09:25.428Z,24.88
2022-10-23T08:11:52.417Z,24.80
2022-10-23T08:14:21.243Z,25.15
2022-10-23T08:16:49.007Z,24.53
2022-10-23T08:19:18.742Z,23.82
2022-10-23T08:21:47.417Z,23.84
2022-10-23T08:24:14.831Z,24.02
2022-10-23T08:26:44.698Z,24.63
2022-10-23T08:29:13.161Z,24.52
2022-10-23T08:31:40.995Z,24.63
2022-10-23T08:34:15.706Z,24.63
2022-10-23T08:36:45.180Z,24.12
2022-10-23T08:39:12.681Z,24.42
2022-10-23T08:41:51.711Z,24.62
2022-10-23T08:44:36.739Z,25.38
2022-10-23T08:47:12.037Z,24.90
2022-10-23T08:50:26.010Z,25.97
2022-10-23T08:53:10.210Z,25.74
2022-10-23T08:55:42.842Z,25.16
2022-10-23T08:58:24.581Z,24.98
2022-10-23T09:00:51.832Z,25.13
2022-10-23T09:03:18.903Z,24.69
2022-10-23T09:06:32.097Z,24.65
2022-10-23T09:09:27.220Z,25.90
2022-10-23T09:12:20.446Z,24.69
2022-10-23T09:15:08.375Z,25.10
2022-10-23T09:17:39.224Z,25.40
2022-10-23T09:20:23.185Z,26.29
2022-10-23T09:23:23.322Z,26.11
2022-10-23T09:25:57.117Z,26.22
2022-10-23T09:28:32.533Z,25.86
2022-10-23T09:31:10.843Z,25.34
2022-10-23T09:33:38.181Z,26.26
2022-10-23T09:36:19.969Z,24.78
2022-10-23T09:38:47.202Z,25.46
2022-10-23T09:41:23.739Z,24.98
2022-10-23T09:44:08.872Z,25.64
2022-10-23T09:46:41.683Z,25.77
2022-10-23T09:49:32.470Z,25.19
2022-10-23T09:52:08.159Z,25.05
2022-10-23T09:54:44.899Z,24.98
2022-10-23T09:57:30.194Z,26.09
2022-10-23T10:00:04.200Z,27.00
2022-10-23T10:02:38.819Z,26.94
2022-10-23T10:05:36.340Z,26.81
2022-10-23T10:08:21.247Z,26.19
2022-10-23T10:10:52.389Z,26.10
2022-10-23T10:13:52.289Z,27.02
2022-10-23T10:16:43.043Z,26.16
2022-10-23T10:19:48.741Z,27.73
2022-10-23T10:22:44.852Z,26.36
2022-10-23T10:25:27.425Z,28.29
2022-10-23T10:28:33.263Z,26.69
2022-10-23T10:31:53.031Z,27.13
2022-10-23T10:34:39.782Z,27.83
2022-10-23T10:37:13.931Z,28.05
2022-10-23T10:39:49.504Z,28.09
2022-10-23T10:43:04.652Z,28.36
2022-10-23T10:45:37.739Z,27.82
2022-10-23T10:48:35.129Z,28.44
2022-10-23T10:51:39.654Z,27.78
2022-10-23T10:54:48.288Z,28.51
2022-10-23T10:57:40.483Z,29.04
2022-10-23T11:00:26.287Z,29.64
2022-10-23T11:03:01.105Z,30.38
2022-10-23T11:05:44.976Z,28.99
2022-10-23T11:08:40.223Z,27.34
2022-10-23T11:11:22.969Z,28.15
2022-10-23T11:13:51.635Z,28.20
2022-10-23T11:16:33.087Z,28.29
2022-10-23T11:19:40.982Z,29.33
2022-10-23T11:22:40.542Z,30.23
2022-10-23T11:25:28.737Z,27.64
2022-10-23T11:28:19.536Z,27.03
2022-10-23T11:31:13.357Z,27.34
2022-10-23T11:34:17.109Z,28.84
2022-10-23T11:36:58.636Z,29.05
2022-10-23T11:39:30.901Z,30.20
2022-10-23T11:42:05.134Z,30.19
2022-10-23T11:44:35.038Z,31.25
2022-10-23T11:47:25.247Z,29.80
2022-10-23T11:50:05.295Z,29.14
2022-10-23T11:52:32.550Z,29.88
2022-10-23T11:55:04.176Z,30.30
2022-10-23T12:00:03.858Z,28.20
2022-10-23T12:02:43.451Z,27.70
2022-10-23T12:05:33.405Z,27.83
2022-10-23T12:08:02.658Z,28.19
2022-10-23T12:10:43.867Z,27.56
2022-10-23T12:13:32.514Z,26.72
2022-10-23T12:16:00.980Z,26.51
2022-10-23T12:18:28.365Z,26.05
2022-10-23T12:20:59.772Z,25.63
2022-10-23T12:23:34.727Z,25.24
2022-10-23T12:26:13.570Z,25.74
2022-10-23T12:29:01.708Z,28.21
2022-10-23T12:31:55.720Z,29.13
2022-10-23T12:34:56.550Z,29.00
2022-10-23T12:37:51.694Z,27.55
2022-10-23T12:40:18.646Z,28.56
2022-10-23T12:42:54.554Z,28.47
2022-10-23T12:45:37.057Z,27.20
2022-10-23T12:48:04.389Z,26.14
2022-10-23T12:50:33.551Z,25.83
2022-10-23T12:53:07.735Z,27.52
2022-10-23T12:55:50.219Z,28.78
2022-10-23T12:58:21.969Z,27.97
2022-10-23T13:00:52.563Z,29.10
2022-10-23T13:03:22.467Z,27.77
2022-10-23T13:05:55.489Z,27.56
2022-10-23T13:08:33.621Z,28.48
2022-10-23T13:11:22.515Z,29.53
2022-10-23T13:13:51.078Z,28.72
2022-10-23T13:16:21.013Z,27.77
2022-10-23T13:18:48.208Z,27.07
2022-10-23T13:21:24.163Z,26.22
2022-10-23T13:23:52.855Z,25.64
2022-10-23T13:26:49.240Z,25.47
2022-10-23T13:29:27.399Z,27.14
2022-10-23T13:31:54.460Z,27.52
2022-10-23T13:34:29.910Z,27.68
2022-10-23T13:37:23.899Z,27.53
2022-10-23T13:40:06.527Z,27.29
2022-10-23T13:42:33.641Z,26.68
2022-10-23T13:45:00.600Z,25.42
2022-10-23T13:47:27.487Z,25.60
2022-10-23T13:49:54.393Z,25.49
2022-10-23T13:52:23.882Z,25.44
2022-10-23T13:54:51.042Z,25.91
2022-10-23T13:57:17.950Z,25.88
2022-10-23T13:59:44.830Z,25.71
2022-10-23T14:02:20.260Z,25.72
2022-10-23T14:04:48.171Z,25.58
2022-10-23T14:07:15.114Z,24.97
2022-10-23T14:09:42.103Z,24.72
2022-10-23T14:12:09.063Z,24.78
2022-10-23T14:14:36.004Z,24.71
2022-10-23T14:17:02.917Z,24.45
2022-10-23T14:19:29.808Z,24.34
2022-10-23T14:21:56.679Z,24.60
2022-10-23T14:24:23.634Z,24.50
2022-10-23T14:26:50.470Z,24.45
2022-10-23T14:29:22.983Z,24.33
2022-10-23T14:31:50.085Z,23.99
2022-10-23T14:34:17.179Z,23.85
2022-10-23T14:36:50.408Z,23.82
2022-10-23T14:39:18.295Z,24.00
2022-10-23T14:41:45.201Z,24.09
2022-10-23T14:44:12.179Z,23.88
2022-10-23T14:46:39.078Z,23.58
2022-10-23T14:49:06.368Z,23.44
2022-10-23T14:51:33.609Z,23.51
2022-10-23T14:54:03.037Z,23.53
2022-10-23T14:56:31.830Z,23.59
2022-10-23T14:59:02.964Z,23.38
2022-10-23T15:01:34.546Z,23.18
2022-10-23T15:04:01.825Z,22.77
2022-10-23T15:06:28.960Z,22.64
2022-10-23T15:08:56.040Z,22.76
2022-10-23T15:11:24.369Z,22.75
2022-10-23T15:13:51.599Z,22.61
2022-10-23T15:16:18.701Z,22.63
2022-10-23T15:18:45.539Z,22.50
2022-10-23T15:21:14.780Z,22.54
2022-10-23T15:23:46.046Z,22.38
2022-10-23T15:26:20.283Z,22.47
2022-10-23T15:28:48.339Z,22.22
2022-10-23T15:31:44.246Z,22.21
2022-10-23T15:34:17.996Z,22.24
2022-10-23T15:36:47.063Z,22.20
2022-10-23T15:39:17.049Z,22.04
2022-10-23T15:41:44.518Z,21.92
2022-10-23T15:44:17.099Z,21.59
2022-10-23T15:46:44.273Z,21.53
2022-10-23T15:49:11.464Z,21.54
2022-10-23T15:51:39.092Z,21.63
2022-10-23T15:54:07.852Z,21.79
2022-10-23T15:56:35.697Z,21.32
2022-10-23T15:59:03.242Z,21.39
2022-10-23T16:01:30.394Z,21.29
2022-10-23T16:03:57.416Z,21.14
2022-10-23T16:06:24.703Z,21.13
2022-10-23T16:11:24.081Z,21.39
2022-10-23T16:13:51.568Z,21.63
2022-10-23T16:16:18.627Z,21.04
2022-10-23T16:18:46.536Z,20.42
2022-10-23T16:21:24.892Z,20.36
2022-10-23T16:23:53.412Z,20.09
2022-10-23T16:26:21.126Z,19.83
2022-10-23T16:28:52.552Z,20.03
2022-10-23T16:31:21.289Z,20.23
2022-10-23T16:33:48.899Z,19.69
2022-10-23T16:36:16.583Z,19.57
2022-10-23T16:39:04.023Z,19.62
2022-10-23T16:41:49.574Z,19.97
2022-10-23T16:44:19.425Z,19.89
2022-10-23T16:47:06.218Z,20.00
2022-10-23T16:49:33.425Z,19.79
2022-10-23T16:52:00.323Z,19.83
2022-10-23T16:54:27.615Z,19.86
2022-10-23T16:56:54.581Z,19.37
2022-10-23T16:59:21.494Z,19.35
2022-10-23T17:01:48.644Z,19.64
2022-10-23T17:04:15.628Z,19.55
2022-10-23T17:06:42.700Z,19.44
2022-10-23T17:09:09.597Z,19.74
2022-10-23T17:11:38.667Z,19.65
2022-10-23T17:14:09.014Z,19.59
2022-10-23T17:16:40.300Z,19.73
2022-10-23T17:19:15.793Z,19.40
2022-10-23T17:21:48.238Z,19.56
2022-10-23T17:24:15.355Z,19.65
2022-10-23T17:26:42.774Z,19.62
2022-10-23T17:29:11.366Z,19.23
2022-10-23T17:31:40.692Z,19.18
2022-10-23T17:34:11.754Z,19.03
2022-10-23T17:36:43.386Z,18.92
2022-10-23T17:39:13.172Z,19.00
2022-10-23T17:41:41.018Z,19.19
2022-10-23T17:44:08.228Z,19.66
2022-10-23T17:46:35.276Z,19.49
2022-10-23T17:49:03.383Z,19.42
2022-10-23T17:51:33.597Z,19.45
2022-10-23T17:54:06.295Z,19.03
2022-10-23T17:56:35.053Z,19.38
2022-10-23T17:59:05.565Z,19.66
2022-10-23T18:01:32.859Z,19.53
2022-10-23T18:04:02.344Z,19.63
2022-10-23T18:06:32.398Z,19.83
2022-10-23T18:09:01.154Z,19.49
2022-10-23T18:11:34.093Z,19.46
2022-10-23T18:14:01.915Z,19.16
2022-10-23T18:16:29.084Z,19.34
2022-10-23T18:18:56.562Z,19.31
2022-10-23T18:21:24.347Z,19.44
2022-10-23T18:23:51.820Z,19.62
2022-10-23T18:26:21.844Z,19.43
2022-10-23T18:28:50.553Z,19.06
2022-10-23T18:31:18.991Z,18.63
2022-10-23T18:33:46.312Z,18.45
2022-10-23T18:36:16.308Z,18.22
2022-10-23T18:38:43.421Z,17.91
2022-10-23T18:41:10.761Z,17.94
2022-10-23T18:43:43.776Z,18.11
2022-10-23T18:46:15.433Z,18.29
2022-10-23T18:48:43.688Z,18.31
2022-10-23T18:51:16.110Z,18.01
2022-10-23T18:53:46.860Z,17.97
2022-10-23T18:56:15.110Z,17.93
2022-10-23T18:58:42.332Z,17.79
2022-10-23T19:01:09.342Z,17.63
2022-10-23T19:03:36.432Z,17.99
2022-10-23T19:06:06.896Z,18.19
2022-10-23T19:08:37.977Z,18.04
2022-10-23T19:11:06.578Z,17.76
2022-10-23T19:13:39.067Z,17.42
2022-10-23T19:16:21.601Z,17.50
2022-10-23T19:18:53.636Z,17.19
2022-10-23T19:21:24.455Z,16.92
2022-10-23T19:23:52.478Z,16.86
2022-10-23T19:26:19.505Z,16.92
2022-10-23T19:28:48.982Z,16.95
2022-10-23T19:31:16.129Z,16.69
2022-10-23T19:33:43.035Z,16.99
2022-10-23T19:36:14.072Z,17.23
2022-10-23T19:38:42.390Z,17.16
2022-10-23T19:41:10.055Z,17.18
2022-10-23T19:43:37.954Z,16.89
2022-10-23T19:46:09.318Z,16.78
2022-10-23T19:48:42.602Z,16.76
2022-10-23T19:51:09.732Z,16.56
2022-10-23T19:53:36.818Z,16.35
2022-10-23T19:56:06.275Z,16.40
2022-10-23T19:58:33.231Z,16.74
2022-10-23T20:01:10.766Z,17.03
2022-10-23T20:03:39.429Z,16.60
2022-10-23T20:06:09.579Z,16.35
2022-10-23T20:08:36.516Z,16.34
2022-10-23T20:11:03.784Z,16.13
2022-10-23T20:13:30.722Z,16.24
2022-10-23T20:15:57.612Z,15.82
2022-10-23T20:18:26.011Z,15.67
2022-10-23T20:20:54.311Z,16.04
2022-10-23T20:23:21.191Z,16.18
2022-10-23T20:25:48.218Z,15.55
2022-10-23T20:28:15.413Z,15.49
2022-10-23T20:30:44.524Z,15.42
2022-10-23T20:33:11.940Z,15.55
2022-10-23T20:35:42.982Z,15.50
2022-10-23T20:38:10.279Z,15.87
2022-10-23T20:40:37.772Z,15.71
2022-10-23T20:43:04.971Z,15.21
2022-10-23T20:45:31.979Z,15.08
2022-10-23T20:47:58.922Z,15.24
2022-10-23T20:50:26.127Z,15.27
2022-10-23T20:52:53.205Z,15.13
2022-10-23T20:55:20.240Z,15.46
2022-10-23T20:57:47.367Z,15.60
2022-10-23T21:00:15.690Z,15.57
2022-10-23T21:02:45.793Z,15.37
2022-10-23T21:05:14.207Z,15.10
2022-10-23T21:07:41.151Z,15.29
2022-10-23T21:10:08.399Z,15.47
2022-10-23T21:12:35.306Z,15.31
2022-10-23T21:15:02.221Z,15.44
2022-10-23T21:17:35.814Z,15.41
2022-10-23T21:20:03.150Z,15.54
2022-10-23T21:22:30.044Z,15.41
2022-10-23T21:24:58.574Z,15.15
2022-10-23T21:27:25.796Z,15.26
2022-10-23T21:29:52.637Z,15.07
2022-10-23T21:32:20.447Z,15.12
2022-10-23T21:34:47.409Z,14.94
2022-10-23T21:37:14.990Z,15.00
2022-10-23T21:39:43.628Z,14.99
2022-10-23T21:42:12.174Z,14.94
2022-10-23T21:44:39.065Z,15.22
2022-10-23T21:47:05.943Z,15.32
2022-10-23T21:49:32.842Z,15.32
2022-10-23T21:51:59.657Z,15.40
2022-10-23T21:54:26.769Z,15.43
2022-10-23T21:56:53.933Z,15.48
2022-10-23T21:59:24.365Z,15.18
2022-10-23T22:01:52.528Z,15.16
2022-10-23T22:04:20.512Z,15.45
2022-10-23T22:06:48.918Z,15.64
2022-10-23T22:09:19.610Z,15.42
2022-10-23T22:11:49.365Z,14.55
2022-10-23T22:14:16.309Z,13.57
2022-10-23T22:16:43.211Z,13.31
2022-10-23T22:19:15.571Z,13.61
2022-10-23T22:21:43.210Z,14.18
2022-10-23T22:24:10.155Z,14.19
2022-10-23T22:26:40.610Z,13.74
2022-10-23T22:29:15.146Z,13.82
2022-10-23T22:31:45.486Z,13.76
2022-10-23T22:34:28.818Z,14.26
2022-10-23T22:37:07.992Z,14.08
2022-10-23T22:39:35.003Z,14.06
2022-10-23T22:42:01.862Z,13.91
2022-10-23T22:44:28.966Z,13.63
2022-10-23T22:46:55.923Z,13.73
2022-10-23T22:49:22.861Z,13.89
2022-10-23T22:51:49.809Z,14.00
2022-10-23T22:54:16.639Z,13.56
2022-10-23T22:56:43.616Z,13.56
2022-10-23T22:59:10.693Z,13.75
2022-10-23T23:01:43.803Z,13.73
2022-10-23T23:04:37.951Z,13.71
2022-10-23T23:07:06.370Z,13.48
2022-10-23T23:09:36.709Z,13.60
2022-10-23T23:12:04.011Z,13.67
2022-10-23T23:14:30.894Z,13.68
2022-10-23T23:16:57.954Z,13.69
2022-10-23T23:19:26.696Z,13.52
2022-10-23T23:22:00.004Z,13.58
2022-10-23T23:24:27.404Z,13.65
2022-10-23T23:26:54.316Z,13.71
2022-10-23T23:29:21.796Z,13.74
2022-10-23T23:31:48.742Z,13.90
2022-10-23T23:34:15.646Z,13.84
2022-10-23T23:36:42.584Z,13.89
2022-10-23T23:39:10.552Z,13.67
2022-10-23T23:41:37.936Z,13.72
2022-10-23T23:44:04.965Z,13.73
2022-10-23T23:46:31.813Z,12.57
2022-10-23T23:48:58.649Z,12.45
2022-10-23T23:51:26.361Z,13.09
2022-10-23T23:53:53.758Z,13.11
2022-10-23T23:56:21.010Z,13.47
2022-10-23T23:58:47.889Z,13.11
